Time;durP1;ratioP1;P1;durP2;ratioP2;P2;SDS_P1;SDS_P2;PMS_P1;PMS_P2;Temp;Humidity;BMP_temperature;BMP_pressure;BME280_temperature;BME280_humidity;BME280_pressure;Samples;Min_cycle;Max_cycle;Signal;HPM_P1;HPM_P2
2022/03/30 00:03:24;;;;;;;8.27;5.90;;;;;;;19.74;31.38;100629.41;16133707;19;129213;-49
2022/03/30 00:08:46;;;;;;;9.93;5.97;;;;;;;19.73;31.49;100628.59;16133226;19;129563;-50
2022/03/30 00:14:08;;;;;;;7.03;6.15;;;;;;;19.69;31.85;100617.16;16133380;19;129856;-45
2022/03/30 00:19:31;;;;;;;6.25;5.63;;;;;;;19.68;31.61;100621.06;16126779;19;129936;-45
2022/03/30 00:24:53;;;;;;;7.65;6.00;;;;;;;19.65;31.81;100621.56;16127712;19;129598;-45
2022/03/30 00:30:17;;;;;;;9.23;5.90;;;;;;;19.64;31.67;100614.34;16135481;19;128984;-48
2022/03/30 00:35:38;;;;;;;7.75;6.07;;;;;;;19.62;31.28;100607.38;16131900;19;129602;-44
2022/03/30 00:41:01;;;;;;;7.75;6.15;;;;;;;19.60;31.38;100601.25;16131398;19;129393;-44
2022/03/30 00:46:23;;;;;;;8.10;6.03;;;;;;;19.57;31.72;100597.03;16130547;19;130248;-46
2022/03/30 00:51:45;;;;;;;9.02;6.55;;;;;;;19.54;31.33;100600.34;16147951;19;130029;-44
2022/03/30 00:57:09;;;;;;;7.28;6.07;;;;;;;19.53;31.34;100607.00;16145858;19;129306;-46
2022/03/30 01:02:31;;;;;;;9.43;6.25;;;;;;;19.51;31.09;100603.66;16143440;19;129686;-50
2022/03/30 01:07:57;;;;;;;8.07;6.00;;;;;;;19.49;31.33;100589.19;16142503;19;130825;-50
2022/03/30 01:13:19;;;;;;;9.20;6.25;;;;;;;19.47;31.15;100581.13;16145734;19;131048;-47
2022/03/30 01:18:41;;;;;;;6.97;5.55;;;;;;;19.45;31.36;100572.25;16141958;19;129447;-47
2022/03/30 01:24:08;;;;;;;9.00;6.20;;;;;;;19.44;31.10;100564.19;16144894;19;128791;-44
2022/03/30 01:35:10;;;;;;;7.85;5.95;;;;;;;19.38;31.05;100555.78;16140337;19;130040;-47
2022/03/30 01:40:32;;;;;;;7.72;5.95;;;;;;;19.40;31.17;100540.81;16141081;19;129100;-44
2022/03/30 01:45:57;;;;;;;7.65;5.93;;;;;;;19.36;31.16;100541.34;16137688;19;130163;-49
2022/03/30 01:51:18;;;;;;;10.37;6.13;;;;;;;19.34;31.21;100532.44;16142752;19;129166;-47
2022/03/30 01:56:40;;;;;;;6.88;5.85;;;;;;;19.34;31.18;100524.13;16139829;19;129380;-45
2022/03/30 02:02:02;;;;;;;8.55;5.78;;;;;;;19.32;31.26;100525.50;16140750;19;129318;-50
2022/03/30 02:07:24;;;;;;;9.38;5.60;;;;;;;19.30;31.45;100517.44;16141024;19;130256;-44
2022/03/30 02:12:46;;;;;;;8.25;5.80;;;;;;;19.30;31.07;100508.25;16142479;19;130015;-44
2022/03/30 02:18:08;;;;;;;7.63;5.40;;;;;;;19.29;31.12;100514.91;16138693;19;129460;-51
2022/03/30 02:23:30;;;;;;;7.53;5.35;;;;;;;19.27;31.27;100504.09;16141225;19;129084;-50
2022/03/30 02:28:52;;;;;;;8.25;5.82;;;;;;;19.24;31.31;100515.69;16141139;19;130345;-48
2022/03/30 02:34:14;;;;;;;8.95;5.78;;;;;;;19.22;30.94;100506.78;16141469;19;129926;-46
2022/03/30 02:39:36;;;;;;;8.45;5.60;;;;;;;19.21;30.98;100508.75;16136726;19;129528;-50
2022/03/30 02:44:58;;;;;;;9.98;6.00;;;;;;;19.19;31.08;100502.56;16138133;19;128895;-46
2022/03/30 02:50:20;;;;;;;11.10;5.97;;;;;;;19.18;31.19;100494.53;16139674;19;129352;-46
2022/03/30 02:55:42;;;;;;;9.10;5.70;;;;;;;19.16;31.32;100489.22;16139777;19;129697;-47
2022/03/30 03:01:04;;;;;;;6.38;5.00;;;;;;;19.15;30.96;100490.31;16138622;19;128811;-44
2022/03/30 03:06:26;;;;;;;8.68;5.97;;;;;;;19.14;31.12;100485.06;16140500;19;130467;-47
2022/03/30 03:11:48;;;;;;;7.97;5.53;;;;;;;19.14;31.24;100485.06;16139944;19;129329;-49
2022/03/30 03:17:10;;;;;;;10.73;5.55;;;;;;;19.12;31.02;100481.69;16136176;19;129140;-47
2022/03/30 03:22:32;;;;;;;9.07;6.07;;;;;;;19.11;30.72;100483.66;16137433;19;129617;-50
2022/03/30 03:28:01;;;;;;;10.65;6.05;;;;;;;19.08;31.13;100482.22;16131927;19;129400;-51
2022/03/30 03:33:22;;;;;;;10.02;5.78;;;;;;;19.06;30.87;100476.13;16136170;19;129589;-50
2022/03/30 03:38:44;;;;;;;9.63;6.28;;;;;;;19.05;30.75;100473.59;16131380;19;129522;-47
2022/03/30 03:44:06;;;;;;;10.10;6.32;;;;;;;19.04;30.87;100461.66;16136559;19;129609;-51
2022/03/30 03:49:28;;;;;;;9.85;5.55;;;;;;;19.04;31.05;100478.31;16136398;19;129275;-48
2022/03/30 03:54:49;;;;;;;7.00;5.00;;;;;;;19.09;30.98;100471.97;16136360;19;129869;-50
2022/03/30 04:00:12;;;;;;;7.70;4.72;;;;;;;19.32;30.56;100470.84;16131070;19;130383;-47
2022/03/30 04:05:34;;;;;;;7.57;4.50;;;;;;;19.76;30.36;100475.38;16133999;19;130837;-49
2022/03/30 04:10:56;;;;;;;6.70;4.00;;;;;;;20.18;29.87;100473.81;16134205;19;130052;-47
2022/03/30 04:16:18;;;;;;;7.20;4.15;;;;;;;20.43;29.53;100473.09;16130449;19;128886;-47
2022/03/30 04:21:41;;;;;;;9.90;3.80;;;;;;;20.55;29.21;100470.13;16139355;19;129371;-44
2022/03/30 04:27:04;;;;;;;6.85;4.22;;;;;;;20.56;29.51;100469.00;16149846;19;129011;-49
2022/03/30 04:32:26;;;;;;;8.15;4.60;;;;;;;20.53;29.19;100458.44;16149497;19;129584;-49
2022/03/30 04:37:48;;;;;;;7.30;4.35;;;;;;;20.48;29.20;100463.13;16147466;19;129181;-48
2022/03/30 04:43:10;;;;;;;7.88;4.25;;;;;;;20.40;29.66;100454.19;16148092;19;129510;-47
2022/03/30 04:48:32;;;;;;;6.57;4.05;;;;;;;20.32;29.50;100457.50;16147377;19;130319;-49
2022/03/30 04:53:55;;;;;;;7.53;4.40;;;;;;;20.22;29.49;100454.66;16144587;19;129854;-46
2022/03/30 04:59:17;;;;;;;7.35;4.22;;;;;;;20.13;29.69;100457.09;16139508;19;129312;-49
2022/03/30 05:04:39;;;;;;;9.98;4.55;;;;;;;20.05;29.64;100446.50;16146589;19;129682;-45
2022/03/30 05:10:01;;;;;;;9.45;5.13;;;;;;;19.95;29.88;100450.84;16145177;19;129718;-45
2022/03/30 05:15:23;;;;;;;6.80;4.80;;;;;;;19.88;29.98;100452.19;16145802;19;128965;-44
2022/03/30 05:20:46;;;;;;;13.43;6.18;;;;;;;19.81;29.61;100446.88;16139732;19;129862;-46
2022/03/30 05:26:08;;;;;;;16.63;6.32;;;;;;;19.74;30.04;100447.09;16142482;19;130443;-47
2022/03/30 05:31:29;;;;;;;13.55;5.95;;;;;;;19.67;29.72;100452.88;16143456;19;130212;-45
2022/03/30 05:36:51;;;;;;;16.63;6.60;;;;;;;19.62;29.96;100436.16;16143669;19;129877;-49
2022/03/30 05:42:14;;;;;;;13.35;6.18;;;;;;;19.58;30.03;100442.50;16144387;19;131949;-48
2022/03/30 05:47:37;;;;;;;11.63;5.53;;;;;;;19.55;30.18;100441.09;16139973;19;131997;-44
2022/03/30 05:52:59;;;;;;;12.88;5.97;;;;;;;19.52;29.85;100455.50;16142160;19;129035;-44
2022/03/30 05:58:21;;;;;;;16.48;6.55;;;;;;;19.47;30.09;100449.91;16139238;19;129174;-44
2022/03/30 06:03:43;;;;;;;9.38;5.47;;;;;;;19.44;30.05;100456.00;16141738;19;129379;-44
2022/03/30 06:09:09;;;;;;;13.77;5.82;;;;;;;19.40;30.19;100457.63;16140946;19;128972;-48
2022/03/30 06:14:31;;;;;;;11.85;5.90;;;;;;;19.38;30.12;100458.72;16138730;19;129047;-45
2022/03/30 06:19:54;;;;;;;14.75;5.63;;;;;;;19.33;30.42;100464.19;16132923;19;129794;-45
2022/03/30 06:25:16;;;;;;;12.35;6.28;;;;;;;19.29;30.30;100456.66;16133905;19;129723;-45
2022/03/30 06:30:38;;;;;;;16.95;6.72;;;;;;;19.24;30.10;100460.22;16137663;19;129055;-46
2022/03/30 06:35:59;;;;;;;14.13;7.25;;;;;;;19.20;29.92;100470.16;16136448;19;129282;-46
2022/03/30 06:41:22;;;;;;;16.15;7.53;;;;;;;19.16;29.81;100469.81;16140862;19;129755;-47
2022/03/30 06:46:44;;;;;;;10.77;6.65;;;;;;;19.14;29.93;100465.66;16134705;19;129926;-45
2022/03/30 06:52:08;;;;;;;16.73;7.18;;;;;;;19.12;29.92;100463.13;16137275;19;129507;-47
2022/03/30 06:57:30;;;;;;;15.57;7.20;;;;;;;19.11;29.83;100446.75;16139228;19;130877;-45
2022/03/30 07:02:52;;;;;;;13.90;6.90;;;;;;;19.08;29.70;100451.72;16141653;19;129444;-44
2022/03/30 07:13:57;;;;;;;12.70;6.65;;;;;;;19.11;29.81;100466.16;16134929;19;129302;-45
2022/03/30 07:19:18;;;;;;;11.40;6.95;;;;;;;19.10;30.15;100470.03;16132988;19;129600;-48
2022/03/30 07:24:41;;;;;;;15.23;6.50;;;;;;;19.11;30.13;100474.47;16134711;19;131386;-45
2022/03/30 07:30:04;;;;;;;12.90;6.50;;;;;;;19.10;30.09;100462.56;16132227;19;129478;-45
2022/03/30 07:35:28;;;;;;;13.75;6.82;;;;;;;19.10;29.99;100457.00;16133614;19;131846;-44
2022/03/30 07:40:51;;;;;;;12.63;6.60;;;;;;;19.16;30.05;100460.69;16134463;19;129279;-43
2022/03/30 07:46:13;;;;;;;14.13;6.57;;;;;;;19.18;30.05;100464.03;16134588;19;130339;-44
2022/03/30 07:51:35;;;;;;;13.38;7.25;;;;;;;19.21;29.82;100466.28;16135964;19;129007;-44
2022/03/30 07:56:57;;;;;;;14.30;7.25;;;;;;;19.22;29.43;100477.13;16135302;19;129874;-43
2022/03/30 08:02:21;;;;;;;13.98;6.75;;;;;;;19.32;29.75;100472.78;16137721;19;131602;-43
2022/03/30 08:07:46;;;;;;;15.68;6.57;;;;;;;19.37;29.16;100473.69;16133382;19;130416;-46
2022/03/30 08:13:10;;;;;;;12.47;7.20;;;;;;;19.33;29.50;100478.06;16139280;19;129606;-45
2022/03/30 08:18:32;;;;;;;15.65;8.00;;;;;;;19.29;29.00;100489.94;16132954;19;128934;-43
2022/03/30 08:23:55;;;;;;;13.02;7.35;;;;;;;19.24;29.18;100487.97;16136222;19;129369;-43
2022/03/30 08:29:17;;;;;;;12.68;6.93;;;;;;;19.32;28.96;100484.69;16135198;19;129523;-46
2022/03/30 08:34:46;;;;;;;15.00;7.35;;;;;;;19.43;28.99;100479.28;16133850;19;131743;-44
2022/03/30 08:40:08;;;;;;;13.02;7.07;;;;;;;19.51;28.76;100470.47;16130390;19;129880;-44
2022/03/30 08:45:30;;;;;;;11.75;6.05;;;;;;;19.63;28.81;100462.00;16132524;19;129118;-48
2022/03/30 08:50:52;;;;;;;12.75;6.57;;;;;;;19.68;28.82;100443.44;16129077;19;131388;-46
2022/03/30 08:56:14;;;;;;;14.57;7.35;;;;;;;19.77;28.22;100451.25;16132658;19;128881;-44
2022/03/30 09:01:39;;;;;;;14.40;6.25;;;;;;;19.81;28.43;100444.91;16126706;19;129685;-43
2022/03/30 09:07:01;;;;;;;11.53;6.47;;;;;;;19.79;28.12;100449.06;16134494;19;129103;-48
2022/03/30 09:12:26;;;;;;;11.02;5.68;;;;;;;19.78;28.28;100447.38;16145815;19;129075;-46
2022/03/30 09:17:56;;;;;;;13.45;6.55;;;;;;;19.76;28.18;100447.63;16144971;19;129448;-44
2022/03/30 09:23:18;;;;;;;12.88;6.30;;;;;;;19.71;28.06;100444.00;16147638;19;130048;-43
2022/03/30 09:28:41;;;;;;;12.23;6.72;;;;;;;19.65;28.31;100438.41;16144035;19;130089;-43
2022/03/30 09:34:04;;;;;;;11.63;5.90;;;;;;;19.63;28.21;100435.06;16148272;19;129224;-45
2022/03/30 09:39:35;;;;;;;13.18;6.50;;;;;;;19.59;28.45;100436.69;16145122;19;130135;-43
2022/03/30 09:44:57;;;;;;;12.70;6.40;;;;;;;19.55;28.64;100427.25;16144769;19;129071;-46
2022/03/30 09:50:27;;;;;;;11.48;5.93;;;;;;;19.55;28.15;100410.59;16146110;19;130023;-45
2022/03/30 09:55:52;;;;;;;10.80;6.22;;;;;;;19.57;28.14;100402.81;16143979;19;130197;-46
2022/03/30 10:01:17;;;;;;;14.10;5.80;;;;;;;19.61;28.19;100397.59;16140634;19;130652;-46
2022/03/30 10:06:40;;;;;;;10.50;5.65;;;;;;;19.61;28.33;100406.75;16144517;19;129301;-44
2022/03/30 10:12:07;;;;;;;9.65;5.32;;;;;;;19.71;28.53;100413.47;16139892;19;129421;-48
2022/03/30 10:17:29;;;;;;;7.07;4.80;;;;;;;19.76;28.10;100403.22;16143081;19;129620;-45
2022/03/30 10:23:11;;;;;;;9.57;5.07;;;;;;;19.82;28.35;100398.56;16140923;19;129472;-43
2022/03/30 10:28:44;;;;;;;9.18;5.03;;;;;;;19.85;28.19;100409.13;16144452;19;129867;-44
2022/03/30 10:34:23;;;;;;;9.07;4.53;;;;;;;19.86;28.32;100394.16;16141830;19;129583;-46
2022/03/30 10:40:03;;;;;;;10.23;4.38;;;;;;;19.79;28.70;100386.06;16139238;19;129186;-46
2022/03/30 10:45:30;;;;;;;12.15;5.30;;;;;;;19.74;28.80;100379.63;16140189;19;129873;-44
2022/03/30 10:51:01;;;;;;;6.95;4.10;;;;;;;19.68;28.39;100374.06;16139412;19;130423;-47
2022/03/30 10:56:24;;;;;;;9.80;4.40;;;;;;;19.64;28.91;100370.13;16133582;19;129238;-49
2022/03/30 11:01:49;;;;;;;10.32;4.38;;;;;;;19.61;28.47;100364.28;16135274;19;129572;-45
2022/03/30 11:07:13;;;;;;;6.20;4.10;;;;;;;19.56;29.06;100355.91;16139832;19;129392;-44
2022/03/30 11:12:59;;;;;;;9.75;4.13;;;;;;;19.52;29.03;100352.84;16140794;19;129030;-46
2022/03/30 11:18:21;;;;;;;8.35;4.32;;;;;;;19.51;29.03;100348.41;16138600;19;129539;-45
2022/03/30 11:24:03;;;;;;;9.07;4.30;;;;;;;19.53;28.89;100335.09;16140884;19;129430;-43
2022/03/30 11:29:39;;;;;;;10.77;4.90;;;;;;;19.56;28.66;100333.72;16139823;19;128903;-44
2022/03/30 11:35:04;;;;;;;6.78;3.90;;;;;;;19.56;28.73;100329.03;16139308;19;129349;-48
2022/03/30 11:40:25;;;;;;;9.75;4.68;;;;;;;19.53;29.00;100335.09;16135143;19;129452;-47
2022/03/30 11:45:47;;;;;;;7.50;4.78;;;;;;;19.49;28.99;100323.72;16136441;19;129480;-44
2022/03/30 11:51:09;;;;;;;8.32;4.40;;;;;;;19.47;29.16;100325.06;16140371;19;130053;-44
2022/03/30 11:56:31;;;;;;;7.63;3.90;;;;;;;19.44;28.89;100314.53;16140245;19;129289;-48
2022/03/30 12:01:54;;;;;;;7.40;4.20;;;;;;;19.43;29.32;100315.63;16133171;19;129389;-44
2022/03/30 12:07:19;;;;;;;8.98;4.43;;;;;;;19.42;29.35;100313.94;16135735;19;130238;-42
2022/03/30 12:12:42;;;;;;;8.53;4.20;;;;;;;19.40;29.18;100296.72;16130607;19;128970;-48
2022/03/30 12:18:04;;;;;;;5.38;3.97;;;;;;;19.40;29.26;100303.09;16135643;19;129601;-45
2022/03/30 12:23:26;;;;;;;5.80;3.80;;;;;;;19.40;29.52;100288.41;16134989;19;130306;-46
2022/03/30 12:28:48;;;;;;;6.22;3.88;;;;;;;19.37;29.20;100282.28;16136728;19;129568;-44
2022/03/30 12:34:15;;;;;;;8.73;4.07;;;;;;;19.36;29.36;100282.56;16135797;19;129325;-43
2022/03/30 12:39:44;;;;;;;8.10;4.20;;;;;;;19.36;29.24;100277.84;16134010;19;129378;-46
2022/03/30 12:45:15;;;;;;;9.35;5.18;;;;;;;19.37;29.25;100267.59;16145816;19;129226;-46
2022/03/30 12:50:37;;;;;;;10.73;5.32;;;;;;;19.36;29.15;100260.38;16151248;19;129267;-44
2022/03/30 12:56:15;;;;;;;11.63;5.05;;;;;;;19.36;29.59;100244.56;16151297;19;130796;-44
2022/03/30 13:01:39;;;;;;;10.63;5.13;;;;;;;19.37;29.22;100237.09;16146773;19;129255;-48
2022/03/30 13:07:13;;;;;;;14.13;5.70;;;;;;;19.38;29.46;100222.94;16150510;19;129362;-46
2022/03/30 13:12:55;;;;;;;16.17;9.02;;;;;;;19.38;29.40;100217.38;16144451;19;129534;-49
2022/03/30 13:18:21;;;;;;;39.63;19.58;;;;;;;19.41;30.73;100209.63;16148225;19;129117;-43
2022/03/30 13:23:48;;;;;;;39.13;19.92;;;;;;;19.50;31.19;100203.31;16148405;19;129649;-49
2022/03/30 13:29:14;;;;;;;38.13;16.73;;;;;;;19.56;31.26;100195.00;16147641;19;129794;-47
2022/03/30 13:34:36;;;;;;;33.35;16.73;;;;;;;19.59;31.48;100189.75;16144287;19;129612;-44
2022/03/30 13:39:58;;;;;;;36.85;15.93;;;;;;;19.54;31.42;100184.19;16144625;19;129515;-43
2022/03/30 13:45:20;;;;;;;28.17;13.77;;;;;;;19.50;30.96;100180.28;16145147;19;130868;-43
2022/03/30 13:50:42;;;;;;;28.33;12.55;;;;;;;19.47;30.65;100175.25;16147893;19;129547;-46
2022/03/30 13:56:13;;;;;;;18.77;11.48;;;;;;;19.46;30.55;100179.13;16145099;19;129349;-44
2022/03/30 14:01:36;;;;;;;23.35;11.75;;;;;;;19.45;30.62;100163.59;16141606;19;130303;-46
2022/03/30 14:07:05;;;;;;;19.98;10.60;;;;;;;19.44;30.39;100164.72;16146539;19;130054;-48
2022/03/30 14:12:33;;;;;;;16.98;10.32;;;;;;;19.42;30.40;100158.59;16139578;19;129299;-45
2022/03/30 14:17:55;;;;;;;16.73;9.85;;;;;;;19.38;30.70;100150.81;16142276;19;129141;-45
2022/03/30 14:23:23;;;;;;;17.38;9.23;;;;;;;19.37;30.39;100146.38;16144889;19;129718;-46
2022/03/30 14:28:45;;;;;;;17.77;9.57;;;;;;;19.31;30.13;100144.69;16143685;19;129655;-45
2022/03/30 14:34:07;;;;;;;14.45;8.52;;;;;;;19.32;30.29;100140.78;16144899;19;129993;-44
2022/03/30 14:39:29;;;;;;;19.48;8.90;;;;;;;19.29;30.31;100135.81;16140028;19;129765;-49
2022/03/30 14:44:51;;;;;;;18.10;8.07;;;;;;;19.25;30.31;100128.31;16143052;19;130650;-45
2022/03/30 14:50:13;;;;;;;16.40;8.23;;;;;;;19.21;30.35;100127.97;16142116;19;129342;-44
2022/03/30 14:55:35;;;;;;;17.02;7.47;;;;;;;19.19;30.15;100116.31;16139284;19;129660;-43
2022/03/30 15:00:58;;;;;;;12.25;7.15;;;;;;;19.15;30.16;100116.00;16140115;19;129239;-42
2022/03/30 15:06:20;;;;;;;15.60;7.30;;;;;;;19.12;29.70;100115.72;16141288;19;128994;-43
2022/03/30 15:11:42;;;;;;;13.93;7.75;;;;;;;19.08;29.89;100112.66;16136383;19;129178;-44
2022/03/30 15:17:04;;;;;;;15.45;8.20;;;;;;;19.03;29.81;100102.38;16137781;19;129727;-44
2022/03/30 15:22:33;;;;;;;11.27;7.05;;;;;;;19.02;29.86;100100.72;16133649;19;131676;-44
2022/03/30 15:27:55;;;;;;;16.58;7.00;;;;;;;19.00;29.56;100100.13;16139091;19;129414;-45
2022/03/30 15:33:17;;;;;;;13.85;7.05;;;;;;;19.00;29.80;100104.84;16136735;19;129930;-42
2022/03/30 15:38:39;;;;;;;13.80;7.18;;;;;;;19.00;29.83;100093.78;16138790;19;130224;-46
2022/03/30 15:44:01;;;;;;;12.82;6.68;;;;;;;18.99;29.49;100086.56;16137108;19;129496;-44
2022/03/30 15:49:23;;;;;;;14.40;6.30;;;;;;;19.03;30.25;100087.66;16131063;19;129054;-43
2022/03/30 15:54:49;;;;;;;12.73;6.30;;;;;;;19.21;30.13;100075.31;16135568;19;129912;-43
2022/03/30 16:00:11;;;;;;;16.45;6.22;;;;;;;19.52;30.28;100083.75;16201524;19;129698;-44
2022/03/30 16:05:34;;;;;;;13.93;6.35;;;;;;;19.87;29.58;100078.56;16202482;19;128649;-47
2022/03/30 16:16:36;;;;;;;21.95;9.60;;;;;;;20.34;29.59;100076.63;16213940;19;128808;-44
2022/03/30 16:21:59;;;;;;;24.30;8.68;;;;;;;20.44;29.85;100077.47;16211917;19;128592;-40
2022/03/30 16:27:21;;;;;;;27.75;9.27;;;;;;;20.47;29.81;100070.53;16215096;19;129416;-44
2022/03/30 16:32:44;;;;;;;34.67;10.48;;;;;;;20.52;30.42;100073.31;16213669;19;129932;-46
2022/03/30 16:38:06;;;;;;;41.20;12.95;;;;;;;20.54;30.70;100081.34;16215005;19;128824;-49
2022/03/30 16:43:27;;;;;;;40.28;19.58;;;;;;;20.52;31.47;100078.84;16203727;19;128457;-46
2022/03/30 16:48:50;;;;;;;38.13;16.77;;;;;;;20.48;31.55;100083.31;16201726;19;128513;-44
2022/03/30 16:54:13;;;;;;;37.10;18.27;;;;;;;20.42;32.24;100081.66;16186759;19;128974;-44
2022/03/30 16:59:35;;;;;;;42.45;20.40;;;;;;;20.36;32.62;100085.53;16188652;19;129127;-45
2022/03/30 17:04:58;;;;;;;52.00;25.70;;;;;;;20.30;33.14;100084.69;16140844;19;129148;-44
2022/03/30 17:10:19;;;;;;;52.38;27.13;;;;;;;20.26;33.16;100073.31;16138781;19;129785;-50
2022/03/30 17:15:41;;;;;;;62.05;33.03;;;;;;;20.20;33.74;100065.28;16140456;19;129788;-49
2022/03/30 17:21:05;;;;;;;67.88;35.85;;;;;;;20.16;34.25;100062.22;16138938;19;129118;-44
2022/03/30 17:26:27;;;;;;;64.75;34.60;;;;;;;20.14;34.42;100072.78;16140446;19;129354;-50
2022/03/30 17:31:48;;;;;;;75.63;43.53;;;;;;;20.11;34.90;100073.31;16154255;19;129846;-48
2022/03/30 17:37:11;;;;;;;74.32;43.58;;;;;;;20.08;35.28;100076.63;16154034;19;129456;-45
2022/03/30 17:42:34;;;;;;;92.30;54.83;;;;;;;20.06;35.79;100076.09;16149389;19;128929;-46
2022/03/30 17:53:38;;;;;;;108.35;65.32;;;;;;;20.03;37.11;100071.09;16152160;19;128928;-45
2022/03/30 17:59:00;;;;;;;114.03;66.47;;;;;;;20.05;37.50;100068.88;16154056;19;129264;-48
2022/03/30 18:04:22;;;;;;;110.75;61.13;;;;;;;20.15;38.38;100071.66;16155333;19;129459;-46
2022/03/30 18:09:44;;;;;;;93.15;52.50;;;;;;;20.26;37.62;100081.66;16149835;19;128859;-47
2022/03/30 18:15:07;;;;;;;78.00;45.35;;;;;;;20.39;37.07;100079.44;16151081;19;129581;-45
2022/03/30 18:20:28;;;;;;;65.30;37.67;;;;;;;20.50;36.60;100075.53;16155207;19;129563;-46
2022/03/30 18:25:52;;;;;;;62.53;34.45;;;;;;;20.62;36.14;100066.88;16139209;19;130355;-46
2022/03/30 18:31:14;;;;;;;56.80;30.65;;;;;;;20.71;35.68;100069.91;16138304;19;131930;-50
2022/03/30 18:36:37;;;;;;;59.92;27.17;;;;;;;20.72;35.44;100066.03;16138461;19;129747;-47
2022/03/30 18:41:59;;;;;;;50.55;26.85;;;;;;;20.70;35.29;100071.03;16135114;19;129358;-44
2022/03/30 18:47:20;;;;;;;49.85;23.75;;;;;;;20.69;35.39;100072.13;16137408;19;129228;-45
2022/03/30 18:52:43;;;;;;;40.20;22.05;;;;;;;20.70;35.10;100076.59;16142065;19;129027;-43
2022/03/30 18:58:05;;;;;;;34.85;21.20;;;;;;;20.73;35.40;100079.66;16141507;19;129706;-45
2022/03/30 19:03:27;;;;;;;38.63;19.70;;;;;;;20.75;35.35;100073.81;16134106;19;131010;-46
2022/03/30 19:08:49;;;;;;;36.75;18.40;;;;;;;20.74;35.19;100077.69;16139291;19;129467;-51
2022/03/30 19:14:14;;;;;;;35.27;18.33;;;;;;;20.70;35.28;100076.59;16133893;19;130040;-49
2022/03/30 19:19:36;;;;;;;32.20;16.98;;;;;;;20.64;35.38;100074.94;16138105;19;128934;-48
2022/03/30 19:24:58;;;;;;;32.42;16.00;;;;;;;20.57;34.98;100081.63;16140500;19;129052;-44
2022/03/30 19:30:20;;;;;;;23.05;15.27;;;;;;;20.58;34.89;100083.28;16138298;19;129532;-44
2022/03/30 19:35:47;;;;;;;29.38;13.73;;;;;;;20.65;35.20;100084.97;16137702;19;129865;-46
2022/03/30 19:41:12;;;;;;;24.60;12.48;;;;;;;20.77;34.56;100084.66;16133104;19;129325;-49
2022/03/30 19:46:33;;;;;;;23.40;10.57;;;;;;;20.80;33.68;100089.66;16129601;19;130337;-49
2022/03/30 19:51:55;;;;;;;20.92;9.70;;;;;;;20.81;33.20;100089.38;16128634;19;130467;-48
2022/03/30 19:57:17;;;;;;;20.17;8.68;;;;;;;20.84;33.14;100083.25;16138971;19;129535;-47
2022/03/30 20:02:39;;;;;;;16.25;8.63;;;;;;;20.91;33.10;100085.75;16133770;19;130329;-44
2022/03/30 20:08:01;;;;;;;15.82;7.53;;;;;;;21.02;33.04;100092.13;16138951;19;130283;-49
2022/03/30 20:13:23;;;;;;;15.10;7.72;;;;;;;21.09;32.89;100086.25;16131634;19;129619;-49
2022/03/30 20:18:45;;;;;;;12.80;6.72;;;;;;;21.09;32.87;100087.09;16136764;19;130491;-45
2022/03/30 20:24:08;;;;;;;12.35;6.47;;;;;;;21.07;33.37;100094.88;16126890;19;130759;-43
2022/03/30 20:29:30;;;;;;;12.95;6.95;;;;;;;20.99;33.45;100090.72;16128978;19;129136;-47
2022/03/30 20:34:51;;;;;;;15.43;7.40;;;;;;;20.87;33.13;100091.03;16131302;19;129549;-43
2022/03/30 20:40:19;;;;;;;15.75;7.35;;;;;;;20.78;33.25;100095.53;16130373;19;129908;-45
2022/03/30 20:45:41;;;;;;;15.48;7.47;;;;;;;20.68;33.45;100089.94;16131115;19;129289;-44
2022/03/30 20:51:08;;;;;;;11.98;6.32;;;;;;;20.58;32.96;100086.06;16130838;19;130488;-48
2022/03/30 20:56:30;;;;;;;15.68;6.40;;;;;;;20.49;33.20;100090.53;16129276;19;129919;-48
2022/03/30 21:01:52;;;;;;;16.27;6.13;;;;;;;20.43;32.81;100088.88;16132543;19;131133;-50
2022/03/30 21:07:14;;;;;;;13.40;6.88;;;;;;;20.36;33.21;100085.53;16146416;19;129881;-46
2022/03/30 21:12:39;;;;;;;8.88;5.30;;;;;;;20.27;33.13;100088.03;16142704;19;130354;-50
2022/03/30 21:18:06;;;;;;;10.40;5.97;;;;;;;20.19;33.36;100089.41;16148281;19;129353;-48
2022/03/30 21:23:28;;;;;;;9.68;5.57;;;;;;;20.13;33.27;100083.03;16144581;19;129887;-47
2022/03/30 21:28:50;;;;;;;10.68;5.07;;;;;;;20.09;33.30;100083.84;16148375;19;131700;-48
2022/03/30 21:34:12;;;;;;;12.27;5.25;;;;;;;20.03;33.13;100082.22;16144036;19;130116;-49
2022/03/30 21:39:34;;;;;;;10.65;5.05;;;;;;;19.96;33.32;100088.81;16146883;19;129589;-48
2022/03/30 21:44:55;;;;;;;11.50;5.43;;;;;;;19.89;33.16;100077.16;16138151;19;129217;-49
2022/03/30 21:50:19;;;;;;;10.05;4.68;;;;;;;19.83;33.14;100076.31;16144062;19;129613;-49
2022/03/30 21:55:41;;;;;;;9.07;4.80;;;;;;;19.81;33.41;100080.50;16142931;19;128895;-52
2022/03/30 22:01:03;;;;;;;6.93;4.35;;;;;;;19.77;32.91;100073.81;16141398;19;130081;-44
2022/03/30 22:06:25;;;;;;;7.68;4.25;;;;;;;19.71;32.87;100074.91;16141453;19;129714;-49
2022/03/30 22:11:47;;;;;;;7.95;3.90;;;;;;;19.65;32.79;100072.13;16139396;19;129528;-50
2022/03/30 22:17:09;;;;;;;7.63;3.90;;;;;;;19.59;32.82;100067.66;16141420;19;129274;-45
2022/03/30 22:22:30;;;;;;;5.97;3.58;;;;;;;19.54;32.74;100062.13;16138789;19;130786;-49
2022/03/30 22:27:52;;;;;;;7.10;3.38;;;;;;;19.51;32.63;100070.97;16141761;19;130236;-46
2022/03/30 22:38:54;;;;;;;6.53;3.33;;;;;;;19.43;33.11;100057.66;16141402;19;130064;-46
2022/03/30 22:44:19;;;;;;;6.80;3.58;;;;;;;19.41;33.07;100049.59;16133325;19;129874;-47
2022/03/30 22:49:41;;;;;;;3.55;3.13;;;;;;;19.37;32.71;100038.22;16139887;19;129476;-46
2022/03/30 22:55:04;;;;;;;5.57;3.17;;;;;;;19.35;32.81;100034.88;16141432;19;129563;-50
2022/03/30 23:00:26;;;;;;;5.47;2.90;;;;;;;19.31;33.03;100039.31;16138122;19;129019;-49
2022/03/30 23:11:28;;;;;;;4.85;3.38;;;;;;;19.25;32.89;100040.38;16139543;19;129552;-48
2022/03/30 23:16:51;;;;;;;6.43;3.42;;;;;;;19.24;32.82;100038.72;16137298;19;129647;-49
2022/03/30 23:22:13;;;;;;;6.05;2.92;;;;;;;19.22;32.49;100024.28;16133694;19;129058;-46
2022/03/30 23:27:36;;;;;;;4.90;2.97;;;;;;;19.19;32.75;100011.78;16138298;19;130344;-45
2022/03/30 23:32:58;;;;;;;3.67;2.67;;;;;;;19.16;32.84;100012.31;16135951;19;129496;-44
2022/03/30 23:38:20;;;;;;;4.70;3.15;;;;;;;19.15;32.40;100012.59;16135385;19;129843;-44
2022/03/30 23:43:41;;;;;;;3.35;2.60;;;;;;;19.12;32.24;100018.69;16131603;19;129915;-49
2022/03/30 23:49:03;;;;;;;5.40;2.58;;;;;;;19.11;32.12;100017.00;16136483;19;129407;-47
2022/03/30 23:54:25;;;;;;;3.53;2.30;;;;;;;19.10;32.06;100023.66;16136225;19;128979;-47
2022/03/30 23:59:46;;;;;;;4.88;2.83;;;;;;;19.07;31.98;100017.59;16136566;19;130287;-45
